sensor_id;sensor_type;location;lat;lon;timestamp;P1;durP1;ratioP1;P2;durP2;ratioP2
54372;SDS011;69157;53.094;10.016;2024-03-17T00:01:02;5.80;;;1.15;;
54372;SDS011;69157;53.094;10.016;2024-03-17T00:03:28;1.48;;;1.20;;
54372;SDS011;69157;53.094;10.016;2024-03-17T00:05:55;6.47;;;1.02;;
54372;SDS011;69157;53.094;10.016;2024-03-17T00:08:22;1.17;;;0.75;;
54372;SDS011;69157;53.094;10.016;2024-03-17T00:10:49;2.42;;;0.90;;
54372;SDS011;69157;53.094;10.016;2024-03-17T00:13:15;4.60;;;1.13;;
54372;SDS011;69157;53.094;10.016;2024-03-17T00:15:41;3.75;;;0.80;;
54372;SDS011;69157;53.094;10.016;2024-03-17T00:18:08;2.60;;;1.33;;
54372;SDS011;69157;53.094;10.016;2024-03-17T00:20:35;1.33;;;0.85;;
54372;SDS011;69157;53.094;10.016;2024-03-17T00:23:01;0.82;;;0.60;;
54372;SDS011;69157;53.094;10.016;2024-03-17T00:25:28;6.53;;;1.35;;
54372;SDS011;69157;53.094;10.016;2024-03-17T00:27:56;3.63;;;1.13;;
54372;SDS011;69157;53.094;10.016;2024-03-17T00:30:22;1.17;;;0.90;;
54372;SDS011;69157;53.094;10.016;2024-03-17T00:32:48;4.95;;;0.88;;
54372;SDS011;69157;53.094;10.016;2024-03-17T00:35:14;3.88;;;1.10;;
54372;SDS011;69157;53.094;10.016;2024-03-17T00:40:11;1.27;;;1.17;;
54372;SDS011;69157;53.094;10.016;2024-03-17T00:42:37;1.63;;;0.82;;
54372;SDS011;69157;53.094;10.016;2024-03-17T00:45:03;0.73;;;0.73;;
54372;SDS011;69157;53.094;10.016;2024-03-17T00:47:31;1.10;;;1.00;;
54372;SDS011;69157;53.094;10.016;2024-03-17T00:49:57;3.85;;;1.73;;
54372;SDS011;69157;53.094;10.016;2024-03-17T00:52:23;1.10;;;0.82;;
54372;SDS011;69157;53.094;10.016;2024-03-17T00:54:50;10.77;;;1.08;;
54372;SDS011;69157;53.094;10.016;2024-03-17T00:57:15;5.30;;;1.15;;
54372;SDS011;69157;53.094;10.016;2024-03-17T00:59:42;3.25;;;1.10;;
54372;SDS011;69157;53.094;10.016;2024-03-17T01:02:09;1.67;;;0.93;;
54372;SDS011;69157;53.094;10.016;2024-03-17T01:04:37;0.60;;;0.60;;
54372;SDS011;69157;53.094;10.016;2024-03-17T01:07:03;5.78;;;1.90;;
54372;SDS011;69157;53.094;10.016;2024-03-17T01:09:29;4.00;;;1.52;;
54372;SDS011;69157;53.094;10.016;2024-03-17T01:11:55;8.60;;;1.23;;
54372;SDS011;69157;53.094;10.016;2024-03-17T01:14:21;1.15;;;0.80;;
54372;SDS011;69157;53.094;10.016;2024-03-17T01:16:47;2.03;;;1.40;;
54372;SDS011;69157;53.094;10.016;2024-03-17T01:19:13;2.05;;;1.05;;
54372;SDS011;69157;53.094;10.016;2024-03-17T01:21:40;5.65;;;1.52;;
54372;SDS011;69157;53.094;10.016;2024-03-17T01:24:07;0.73;;;0.70;;
54372;SDS011;69157;53.094;10.016;2024-03-17T01:26:33;1.10;;;0.70;;
54372;SDS011;69157;53.094;10.016;2024-03-17T01:29:00;5.50;;;1.38;;
54372;SDS011;69157;53.094;10.016;2024-03-17T01:31:26;5.03;;;0.85;;
54372;SDS011;69157;53.094;10.016;2024-03-17T01:33:52;4.20;;;1.00;;
54372;SDS011;69157;53.094;10.016;2024-03-17T01:36:18;0.50;;;0.50;;
54372;SDS011;69157;53.094;10.016;2024-03-17T01:38:44;1.58;;;0.90;;
54372;SDS011;69157;53.094;10.016;2024-03-17T01:41:10;1.10;;;1.00;;
54372;SDS011;69157;53.094;10.016;2024-03-17T01:43:37;2.83;;;1.00;;
54372;SDS011;69157;53.094;10.016;2024-03-17T01:46:03;1.70;;;0.93;;
54372;SDS011;69157;53.094;10.016;2024-03-17T01:48:30;8.98;;;1.83;;
54372;SDS011;69157;53.094;10.016;2024-03-17T01:50:56;1.33;;;1.25;;
54372;SDS011;69157;53.094;10.016;2024-03-17T01:53:23;1.00;;;1.00;;
54372;SDS011;69157;53.094;10.016;2024-03-17T01:55:52;1.45;;;0.93;;
54372;SDS011;69157;53.094;10.016;2024-03-17T01:58:20;11.38;;;0.80;;
54372;SDS011;69157;53.094;10.016;2024-03-17T02:00:46;1.52;;;0.85;;
54372;SDS011;69157;53.094;10.016;2024-03-17T02:03:12;1.77;;;1.33;;
54372;SDS011;69157;53.094;10.016;2024-03-17T02:05:38;0.65;;;0.65;;
54372;SDS011;69157;53.094;10.016;2024-03-17T02:08:05;2.20;;;0.90;;
54372;SDS011;69157;53.094;10.016;2024-03-17T02:10:31;1.35;;;1.25;;
54372;SDS011;69157;53.094;10.016;2024-03-17T02:12:58;1.33;;;1.20;;
54372;SDS011;69157;53.094;10.016;2024-03-17T02:15:24;1.35;;;1.25;;
54372;SDS011;69157;53.094;10.016;2024-03-17T02:17:50;3.92;;;0.93;;
54372;SDS011;69157;53.094;10.016;2024-03-17T02:20:16;1.00;;;0.90;;
54372;SDS011;69157;53.094;10.016;2024-03-17T02:22:42;5.13;;;1.23;;
54372;SDS011;69157;53.094;10.016;2024-03-17T02:25:08;9.77;;;1.17;;
54372;SDS011;69157;53.094;10.016;2024-03-17T02:27:35;1.42;;;1.15;;
54372;SDS011;69157;53.094;10.016;2024-03-17T02:30:01;0.88;;;0.70;;
54372;SDS011;69157;53.094;10.016;2024-03-17T02:32:27;1.15;;;1.05;;
54372;SDS011;69157;53.094;10.016;2024-03-17T02:34:53;2.35;;;1.17;;
54372;SDS011;69157;53.094;10.016;2024-03-17T02:37:20;7.47;;;0.75;;
54372;SDS011;69157;53.094;10.016;2024-03-17T02:39:45;0.40;;;0.40;;
54372;SDS011;69157;53.094;10.016;2024-03-17T02:42:13;1.20;;;0.82;;
54372;SDS011;69157;53.094;10.016;2024-03-17T02:44:39;5.25;;;0.88;;
54372;SDS011;69157;53.094;10.016;2024-03-17T02:47:06;4.25;;;0.80;;
54372;SDS011;69157;53.094;10.016;2024-03-17T02:49:35;1.40;;;0.82;;
54372;SDS011;69157;53.094;10.016;2024-03-17T02:52:08;1.38;;;1.05;;
54372;SDS011;69157;53.094;10.016;2024-03-17T02:54:34;1.08;;;0.90;;
54372;SDS011;69157;53.094;10.016;2024-03-17T02:57:01;10.05;;;0.77;;
54372;SDS011;69157;53.094;10.016;2024-03-17T02:59:27;0.70;;;0.70;;
54372;SDS011;69157;53.094;10.016;2024-03-17T03:01:53;4.93;;;0.77;;
54372;SDS011;69157;53.094;10.016;2024-03-17T03:04:19;1.02;;;0.70;;
54372;SDS011;69157;53.094;10.016;2024-03-17T03:06:45;6.53;;;1.67;;
54372;SDS011;69157;53.094;10.016;2024-03-17T03:09:11;1.88;;;1.05;;
54372;SDS011;69157;53.094;10.016;2024-03-17T03:11:39;2.47;;;0.88;;
54372;SDS011;69157;53.094;10.016;2024-03-17T03:14:05;1.55;;;0.60;;
54372;SDS011;69157;53.094;10.016;2024-03-17T03:16:31;7.88;;;0.73;;
54372;SDS011;69157;53.094;10.016;2024-03-17T03:18:58;2.28;;;1.33;;
54372;SDS011;69157;53.094;10.016;2024-03-17T03:21:24;1.83;;;1.15;;
54372;SDS011;69157;53.094;10.016;2024-03-17T03:23:51;0.50;;;0.50;;
54372;SDS011;69157;53.094;10.016;2024-03-17T03:26:17;9.38;;;1.10;;
54372;SDS011;69157;53.094;10.016;2024-03-17T03:28:43;0.80;;;0.80;;
54372;SDS011;69157;53.094;10.016;2024-03-17T03:31:13;0.85;;;0.85;;
54372;SDS011;69157;53.094;10.016;2024-03-17T03:33:39;1.27;;;0.90;;
54372;SDS011;69157;53.094;10.016;2024-03-17T03:36:13;0.73;;;0.70;;
54372;SDS011;69157;53.094;10.016;2024-03-17T03:38:39;11.82;;;0.90;;
54372;SDS011;69157;53.094;10.016;2024-03-17T03:41:09;0.73;;;0.73;;
54372;SDS011;69157;53.094;10.016;2024-03-17T03:43:35;2.30;;;0.70;;
54372;SDS011;69157;53.094;10.016;2024-03-17T03:46:01;0.60;;;0.60;;
54372;SDS011;69157;53.094;10.016;2024-03-17T03:48:27;0.80;;;0.80;;
54372;SDS011;69157;53.094;10.016;2024-03-17T03:50:53;3.50;;;1.92;;
54372;SDS011;69157;53.094;10.016;2024-03-17T03:53:19;0.70;;;0.70;;
54372;SDS011;69157;53.094;10.016;2024-03-17T03:55:45;1.20;;;0.90;;
54372;SDS011;69157;53.094;10.016;2024-03-17T03:58:12;1.83;;;1.40;;
54372;SDS011;69157;53.094;10.016;2024-03-17T04:00:41;0.73;;;0.73;;
54372;SDS011;69157;53.094;10.016;2024-03-17T04:03:07;2.47;;;1.38;;
54372;SDS011;69157;53.094;10.016;2024-03-17T04:05:33;4.00;;;1.08;;
54372;SDS011;69157;53.094;10.016;2024-03-17T04:08:00;0.82;;;0.82;;
54372;SDS011;69157;53.094;10.016;2024-03-17T04:10:27;1.50;;;0.90;;
54372;SDS011;69157;53.094;10.016;2024-03-17T04:12:53;0.88;;;0.73;;
54372;SDS011;69157;53.094;10.016;2024-03-17T04:15:19;0.82;;;0.82;;
54372;SDS011;69157;53.094;10.016;2024-03-17T04:17:45;1.85;;;0.75;;
54372;SDS011;69157;53.094;10.016;2024-03-17T04:20:12;1.15;;;1.08;;
54372;SDS011;69157;53.094;10.016;2024-03-17T04:22:41;1.98;;;1.40;;
54372;SDS011;69157;53.094;10.016;2024-03-17T04:25:11;1.13;;;0.88;;
54372;SDS011;69157;53.094;10.016;2024-03-17T04:27:38;1.08;;;1.02;;
54372;SDS011;69157;53.094;10.016;2024-03-17T04:30:04;0.70;;;0.70;;
54372;SDS011;69157;53.094;10.016;2024-03-17T04:32:31;1.08;;;0.82;;
54372;SDS011;69157;53.094;10.016;2024-03-17T04:34:57;0.70;;;0.70;;
54372;SDS011;69157;53.094;10.016;2024-03-17T04:37:23;0.52;;;0.52;;
54372;SDS011;69157;53.094;10.016;2024-03-17T04:39:49;2.35;;;1.10;;
54372;SDS011;69157;53.094;10.016;2024-03-17T04:42:16;1.33;;;1.13;;
54372;SDS011;69157;53.094;10.016;2024-03-17T04:44:43;0.70;;;0.70;;
54372;SDS011;69157;53.094;10.016;2024-03-17T04:47:09;4.15;;;0.93;;
54372;SDS011;69157;53.094;10.016;2024-03-17T04:49:35;2.83;;;1.05;;
54372;SDS011;69157;53.094;10.016;2024-03-17T04:52:01;0.55;;;0.55;;
54372;SDS011;69157;53.094;10.016;2024-03-17T04:54:28;2.83;;;0.80;;
54372;SDS011;69157;53.094;10.016;2024-03-17T04:56:53;1.00;;;0.90;;
54372;SDS011;69157;53.094;10.016;2024-03-17T04:59:19;1.05;;;0.85;;
54372;SDS011;69157;53.094;10.016;2024-03-17T05:01:46;0.55;;;0.55;;
54372;SDS011;69157;53.094;10.016;2024-03-17T05:04:13;2.85;;;0.68;;
54372;SDS011;69157;53.094;10.016;2024-03-17T05:06:39;3.72;;;1.02;;
54372;SDS011;69157;53.094;10.016;2024-03-17T05:09:06;1.13;;;1.13;;
54372;SDS011;69157;53.094;10.016;2024-03-17T05:11:32;0.88;;;0.88;;
54372;SDS011;69157;53.094;10.016;2024-03-17T05:14:00;1.58;;;1.48;;
54372;SDS011;69157;53.094;10.016;2024-03-17T05:16:26;1.23;;;1.13;;
54372;SDS011;69157;53.094;10.016;2024-03-17T05:18:54;3.10;;;1.20;;
54372;SDS011;69157;53.094;10.016;2024-03-17T05:21:20;0.77;;;0.77;;
54372;SDS011;69157;53.094;10.016;2024-03-17T05:23:47;1.15;;;1.05;;
54372;SDS011;69157;53.094;10.016;2024-03-17T05:26:16;3.83;;;1.48;;
54372;SDS011;69157;53.094;10.016;2024-03-17T05:28:42;1.38;;;1.17;;
54372;SDS011;69157;53.094;10.016;2024-03-17T05:31:09;5.00;;;0.88;;
54372;SDS011;69157;53.094;10.016;2024-03-17T05:33:35;1.17;;;0.93;;
54372;SDS011;69157;53.094;10.016;2024-03-17T05:36:01;0.65;;;0.65;;
54372;SDS011;69157;53.094;10.016;2024-03-17T05:38:28;1.13;;;0.90;;
54372;SDS011;69157;53.094;10.016;2024-03-17T05:40:54;1.13;;;1.00;;
54372;SDS011;69157;53.094;10.016;2024-03-17T05:43:21;1.15;;;0.90;;
54372;SDS011;69157;53.094;10.016;2024-03-17T05:45:48;0.50;;;0.50;;
54372;SDS011;69157;53.094;10.016;2024-03-17T05:48:14;2.92;;;0.90;;
54372;SDS011;69157;53.094;10.016;2024-03-17T05:50:40;0.80;;;0.80;;
54372;SDS011;69157;53.094;10.016;2024-03-17T05:53:06;10.00;;;0.98;;
54372;SDS011;69157;53.094;10.016;2024-03-17T05:55:34;4.13;;;1.00;;
54372;SDS011;69157;53.094;10.016;2024-03-17T05:58:01;1.17;;;0.82;;
54372;SDS011;69157;53.094;10.016;2024-03-17T06:00:27;1.60;;;1.13;;
54372;SDS011;69157;53.094;10.016;2024-03-17T06:02:53;2.05;;;0.77;;
54372;SDS011;69157;53.094;10.016;2024-03-17T06:05:19;4.30;;;1.02;;
54372;SDS011;69157;53.094;10.016;2024-03-17T06:07:45;2.38;;;1.13;;
54372;SDS011;69157;53.094;10.016;2024-03-17T06:10:12;1.02;;;1.02;;
54372;SDS011;69157;53.094;10.016;2024-03-17T06:12:38;4.15;;;1.30;;
54372;SDS011;69157;53.094;10.016;2024-03-17T06:15:04;8.13;;;2.55;;
54372;SDS011;69157;53.094;10.016;2024-03-17T06:17:31;1.70;;;1.60;;
54372;SDS011;69157;53.094;10.016;2024-03-17T06:19:57;6.70;;;1.90;;
54372;SDS011;69157;53.094;10.016;2024-03-17T06:22:23;5.32;;;1.33;;
54372;SDS011;69157;53.094;10.016;2024-03-17T06:24:49;7.03;;;2.35;;
54372;SDS011;69157;53.094;10.016;2024-03-17T06:27:16;4.60;;;2.78;;
54372;SDS011;69157;53.094;10.016;2024-03-17T06:29:43;11.90;;;2.85;;
54372;SDS011;69157;53.094;10.016;2024-03-17T06:32:10;11.80;;;2.67;;
54372;SDS011;69157;53.094;10.016;2024-03-17T06:34:36;15.25;;;4.68;;
54372;SDS011;69157;53.094;10.016;2024-03-17T06:37:02;17.90;;;2.60;;
54372;SDS011;69157;53.094;10.016;2024-03-17T06:39:28;3.90;;;2.45;;
54372;SDS011;69157;53.094;10.016;2024-03-17T06:41:54;1.63;;;1.52;;
54372;SDS011;69157;53.094;10.016;2024-03-17T06:44:20;4.68;;;1.85;;
54372;SDS011;69157;53.094;10.016;2024-03-17T06:46:49;8.60;;;2.00;;
54372;SDS011;69157;53.094;10.016;2024-03-17T06:49:15;2.88;;;1.73;;
54372;SDS011;69157;53.094;10.016;2024-03-17T06:51:42;2.58;;;1.23;;
54372;SDS011;69157;53.094;10.016;2024-03-17T06:54:09;11.38;;;2.40;;
54372;SDS011;69157;53.094;10.016;2024-03-17T06:56:35;2.53;;;2.03;;
54372;SDS011;69157;53.094;10.016;2024-03-17T06:59:02;1.40;;;1.30;;
54372;SDS011;69157;53.094;10.016;2024-03-17T07:01:28;3.80;;;1.60;;
54372;SDS011;69157;53.094;10.016;2024-03-17T07:03:54;3.55;;;1.58;;
54372;SDS011;69157;53.094;10.016;2024-03-17T07:06:20;4.97;;;2.08;;
54372;SDS011;69157;53.094;10.016;2024-03-17T07:08:46;2.80;;;1.30;;
54372;SDS011;69157;53.094;10.016;2024-03-17T07:11:12;3.00;;;1.58;;
54372;SDS011;69157;53.094;10.016;2024-03-17T07:13:38;7.68;;;2.38;;
54372;SDS011;69157;53.094;10.016;2024-03-17T07:16:06;6.82;;;1.48;;
54372;SDS011;69157;53.094;10.016;2024-03-17T07:18:32;5.15;;;2.63;;
54372;SDS011;69157;53.094;10.016;2024-03-17T07:20:59;1.92;;;1.75;;
54372;SDS011;69157;53.094;10.016;2024-03-17T07:23:25;3.03;;;1.67;;
54372;SDS011;69157;53.094;10.016;2024-03-17T07:25:52;2.83;;;1.55;;
54372;SDS011;69157;53.094;10.016;2024-03-17T07:28:19;2.45;;;1.38;;
54372;SDS011;69157;53.094;10.016;2024-03-17T07:30:52;3.38;;;1.85;;
54372;SDS011;69157;53.094;10.016;2024-03-17T07:33:18;2.70;;;1.95;;
54372;SDS011;69157;53.094;10.016;2024-03-17T07:35:54;6.95;;;1.70;;
54372;SDS011;69157;53.094;10.016;2024-03-17T07:38:21;2.03;;;1.27;;
54372;SDS011;69157;53.094;10.016;2024-03-17T07:43:26;1.70;;;1.60;;
54372;SDS011;69157;53.094;10.016;2024-03-17T07:48:31;3.75;;;1.92;;
54372;SDS011;69157;53.094;10.016;2024-03-17T07:50:57;2.35;;;1.70;;
54372;SDS011;69157;53.094;10.016;2024-03-17T07:53:24;3.28;;;1.67;;
54372;SDS011;69157;53.094;10.016;2024-03-17T07:58:25;2.13;;;1.90;;
54372;SDS011;69157;53.094;10.016;2024-03-17T08:00:52;3.15;;;2.05;;
54372;SDS011;69157;53.094;10.016;2024-03-17T08:03:18;7.65;;;2.53;;
54372;SDS011;69157;53.094;10.016;2024-03-17T08:05:47;3.03;;;2.00;;
54372;SDS011;69157;53.094;10.016;2024-03-17T08:08:14;2.75;;;2.15;;
54372;SDS011;69157;53.094;10.016;2024-03-17T08:10:40;3.10;;;1.63;;
54372;SDS011;69157;53.094;10.016;2024-03-17T08:13:06;8.45;;;2.05;;
54372;SDS011;69157;53.094;10.016;2024-03-17T08:15:33;5.68;;;2.10;;
54372;SDS011;69157;53.094;10.016;2024-03-17T08:17:59;2.95;;;1.70;;
54372;SDS011;69157;53.094;10.016;2024-03-17T08:20:25;2.83;;;2.03;;
54372;SDS011;69157;53.094;10.016;2024-03-17T08:22:51;2.13;;;1.40;;
54372;SDS011;69157;53.094;10.016;2024-03-17T08:25:17;2.70;;;1.75;;
54372;SDS011;69157;53.094;10.016;2024-03-17T08:27:43;3.20;;;1.75;;
54372;SDS011;69157;53.094;10.016;2024-03-17T08:30:09;2.63;;;2.38;;
54372;SDS011;69157;53.094;10.016;2024-03-17T08:32:35;1.77;;;1.67;;
54372;SDS011;69157;53.094;10.016;2024-03-17T08:35:01;2.75;;;1.90;;
54372;SDS011;69157;53.094;10.016;2024-03-17T08:37:27;2.97;;;1.67;;
54372;SDS011;69157;53.094;10.016;2024-03-17T08:39:53;3.55;;;2.00;;
54372;SDS011;69157;53.094;10.016;2024-03-17T08:42:19;7.55;;;2.38;;
54372;SDS011;69157;53.094;10.016;2024-03-17T08:44:46;3.42;;;2.17;;
54372;SDS011;69157;53.094;10.016;2024-03-17T08:47:12;7.22;;;1.60;;
54372;SDS011;69157;53.094;10.016;2024-03-17T08:49:38;5.20;;;1.65;;
54372;SDS011;69157;53.094;10.016;2024-03-17T08:52:04;3.03;;;2.08;;
54372;SDS011;69157;53.094;10.016;2024-03-17T08:54:30;5.40;;;1.42;;
54372;SDS011;69157;53.094;10.016;2024-03-17T08:56:56;4.70;;;1.70;;
54372;SDS011;69157;53.094;10.016;2024-03-17T08:59:22;4.80;;;1.30;;
54372;SDS011;69157;53.094;10.016;2024-03-17T09:01:48;1.98;;;1.05;;
54372;SDS011;69157;53.094;10.016;2024-03-17T09:04:15;4.30;;;1.25;;
54372;SDS011;69157;53.094;10.016;2024-03-17T09:06:41;6.20;;;1.50;;
54372;SDS011;69157;53.094;10.016;2024-03-17T09:09:07;5.80;;;1.23;;
54372;SDS011;69157;53.094;10.016;2024-03-17T09:11:33;1.50;;;0.60;;
54372;SDS011;69157;53.094;10.016;2024-03-17T09:13:59;0.63;;;0.63;;
54372;SDS011;69157;53.094;10.016;2024-03-17T09:16:26;6.45;;;1.50;;
54372;SDS011;69157;53.094;10.016;2024-03-17T09:18:53;2.80;;;0.88;;
54372;SDS011;69157;53.094;10.016;2024-03-17T09:21:21;0.77;;;0.65;;
54372;SDS011;69157;53.094;10.016;2024-03-17T09:23:48;2.35;;;1.25;;
54372;SDS011;69157;53.094;10.016;2024-03-17T09:26:15;5.65;;;0.77;;
54372;SDS011;69157;53.094;10.016;2024-03-17T09:28:42;1.88;;;0.70;;
54372;SDS011;69157;53.094;10.016;2024-03-17T09:31:13;1.92;;;0.75;;
54372;SDS011;69157;53.094;10.016;2024-03-17T09:33:39;1.70;;;0.57;;
54372;SDS011;69157;53.094;10.016;2024-03-17T09:36:06;0.57;;;0.50;;
54372;SDS011;69157;53.094;10.016;2024-03-17T09:38:33;2.33;;;0.93;;
54372;SDS011;69157;53.094;10.016;2024-03-17T09:40:59;1.55;;;0.80;;
54372;SDS011;69157;53.094;10.016;2024-03-17T09:43:27;2.72;;;0.75;;
54372;SDS011;69157;53.094;10.016;2024-03-17T09:45:54;2.45;;;0.63;;
54372;SDS011;69157;53.094;10.016;2024-03-17T09:48:22;4.68;;;0.93;;
54372;SDS011;69157;53.094;10.016;2024-03-17T09:50:52;3.80;;;0.70;;
54372;SDS011;69157;53.094;10.016;2024-03-17T09:53:25;3.07;;;0.70;;
54372;SDS011;69157;53.094;10.016;2024-03-17T09:55:52;0.75;;;0.52;;
54372;SDS011;69157;53.094;10.016;2024-03-17T09:58:18;5.13;;;0.77;;
54372;SDS011;69157;53.094;10.016;2024-03-17T10:00:45;2.80;;;0.80;;
54372;SDS011;69157;53.094;10.016;2024-03-17T10:06:01;0.60;;;0.60;;
54372;SDS011;69157;53.094;10.016;2024-03-17T10:08:27;1.13;;;0.50;;
54372;SDS011;69157;53.094;10.016;2024-03-17T10:10:52;8.73;;;1.25;;
54372;SDS011;69157;53.094;10.016;2024-03-17T10:13:19;1.40;;;0.50;;
54372;SDS011;69157;53.094;10.016;2024-03-17T10:15:48;1.90;;;0.60;;
54372;SDS011;69157;53.094;10.016;2024-03-17T10:18:21;1.15;;;0.65;;
54372;SDS011;69157;53.094;10.016;2024-03-17T10:20:51;2.13;;;0.90;;
54372;SDS011;69157;53.094;10.016;2024-03-17T10:25:47;2.88;;;0.70;;
54372;SDS011;69157;53.094;10.016;2024-03-17T10:28:14;1.08;;;0.50;;
54372;SDS011;69157;53.094;10.016;2024-03-17T10:30:40;0.73;;;0.40;;
54372;SDS011;69157;53.094;10.016;2024-03-17T10:33:07;1.75;;;0.70;;
54372;SDS011;69157;53.094;10.016;2024-03-17T10:35:35;4.43;;;0.85;;
54372;SDS011;69157;53.094;10.016;2024-03-17T10:38:05;13.13;;;1.25;;
54372;SDS011;69157;53.094;10.016;2024-03-17T10:40:34;2.92;;;1.02;;
54372;SDS011;69157;53.094;10.016;2024-03-17T10:43:03;0.60;;;0.60;;
54372;SDS011;69157;53.094;10.016;2024-03-17T10:45:29;0.70;;;0.47;;
54372;SDS011;69157;53.094;10.016;2024-03-17T10:48:01;1.02;;;0.60;;
54372;SDS011;69157;53.094;10.016;2024-03-17T10:50:29;2.60;;;0.70;;
54372;SDS011;69157;53.094;10.016;2024-03-17T10:52:55;3.85;;;0.50;;
54372;SDS011;69157;53.094;10.016;2024-03-17T10:55:24;0.70;;;0.32;;
54372;SDS011;69157;53.094;10.016;2024-03-17T10:57:51;5.13;;;1.33;;
54372;SDS011;69157;53.094;10.016;2024-03-17T11:00:18;0.50;;;0.50;;
54372;SDS011;69157;53.094;10.016;2024-03-17T11:02:47;0.70;;;0.60;;
54372;SDS011;69157;53.094;10.016;2024-03-17T11:05:15;0.35;;;0.35;;
54372;SDS011;69157;53.094;10.016;2024-03-17T11:07:44;2.92;;;0.80;;
54372;SDS011;69157;53.094;10.016;2024-03-17T11:10:22;1.02;;;0.80;;
54372;SDS011;69157;53.094;10.016;2024-03-17T11:12:49;2.90;;;0.45;;
54372;SDS011;69157;53.094;10.016;2024-03-17T11:17:48;4.50;;;0.82;;
54372;SDS011;69157;53.094;10.016;2024-03-17T11:20:18;1.58;;;0.57;;
54372;SDS011;69157;53.094;10.016;2024-03-17T11:22:50;4.93;;;0.70;;
54372;SDS011;69157;53.094;10.016;2024-03-17T11:27:58;1.20;;;0.50;;
54372;SDS011;69157;53.094;10.016;2024-03-17T11:36:29;1.65;;;0.50;;
54372;SDS011;69157;53.094;10.016;2024-03-17T11:38:58;1.85;;;0.57;;
54372;SDS011;69157;53.094;10.016;2024-03-17T11:46:39;3.15;;;0.50;;
54372;SDS011;69157;53.094;10.016;2024-03-17T11:49:05;3.22;;;0.50;;
54372;SDS011;69157;53.094;10.016;2024-03-17T11:51:34;2.05;;;0.40;;
54372;SDS011;69157;53.094;10.016;2024-03-17T11:54:00;3.70;;;0.65;;
54372;SDS011;69157;53.094;10.016;2024-03-17T11:56:26;2.72;;;0.52;;
54372;SDS011;69157;53.094;10.016;2024-03-17T11:59:04;2.42;;;0.73;;
54372;SDS011;69157;53.094;10.016;2024-03-17T12:01:30;0.45;;;0.45;;
54372;SDS011;69157;53.094;10.016;2024-03-17T12:03:57;1.17;;;0.43;;
54372;SDS011;69157;53.094;10.016;2024-03-17T12:06:28;4.47;;;0.75;;
54372;SDS011;69157;53.094;10.016;2024-03-17T12:08:54;2.47;;;0.65;;
54372;SDS011;69157;53.094;10.016;2024-03-17T12:11:35;0.50;;;0.50;;
54372;SDS011;69157;53.094;10.016;2024-03-17T12:14:09;4.70;;;0.60;;
54372;SDS011;69157;53.094;10.016;2024-03-17T12:16:38;1.42;;;0.50;;
54372;SDS011;69157;53.094;10.016;2024-03-17T12:19:06;2.75;;;0.73;;
54372;SDS011;69157;53.094;10.016;2024-03-17T12:21:32;1.80;;;0.57;;
54372;SDS011;69157;53.094;10.016;2024-03-17T12:24:00;0.85;;;0.30;;
54372;SDS011;69157;53.094;10.016;2024-03-17T12:26:26;0.85;;;0.60;;
54372;SDS011;69157;53.094;10.016;2024-03-17T12:28:52;0.40;;;0.40;;
54372;SDS011;69157;53.094;10.016;2024-03-17T12:31:18;1.02;;;0.70;;
54372;SDS011;69157;53.094;10.016;2024-03-17T12:33:44;3.35;;;0.40;;
54372;SDS011;69157;53.094;10.016;2024-03-17T12:36:11;4.68;;;0.88;;
54372;SDS011;69157;53.094;10.016;2024-03-17T12:38:38;0.40;;;0.40;;
54372;SDS011;69157;53.094;10.016;2024-03-17T12:41:04;3.20;;;0.63;;
54372;SDS011;69157;53.094;10.016;2024-03-17T12:43:34;4.85;;;0.70;;
54372;SDS011;69157;53.094;10.016;2024-03-17T12:46:00;0.55;;;0.30;;
54372;SDS011;69157;53.094;10.016;2024-03-17T12:48:26;1.30;;;0.50;;
54372;SDS011;69157;53.094;10.016;2024-03-17T12:50:54;1.30;;;0.40;;
54372;SDS011;69157;53.094;10.016;2024-03-17T12:53:20;0.73;;;0.47;;
54372;SDS011;69157;53.094;10.016;2024-03-17T12:55:53;2.13;;;0.60;;
54372;SDS011;69157;53.094;10.016;2024-03-17T12:58:38;2.20;;;0.50;;
54372;SDS011;69157;53.094;10.016;2024-03-17T13:01:22;5.30;;;0.50;;
54372;SDS011;69157;53.094;10.016;2024-03-17T13:03:49;2.20;;;0.80;;
54372;SDS011;69157;53.094;10.016;2024-03-17T13:06:23;5.28;;;0.82;;
54372;SDS011;69157;53.094;10.016;2024-03-17T13:08:49;0.82;;;0.38;;
54372;SDS011;69157;53.094;10.016;2024-03-17T13:11:21;1.02;;;0.80;;
54372;SDS011;69157;53.094;10.016;2024-03-17T13:13:49;0.60;;;0.50;;
54372;SDS011;69157;53.094;10.016;2024-03-17T13:16:14;1.00;;;0.60;;
54372;SDS011;69157;53.094;10.016;2024-03-17T13:18:42;4.00;;;0.70;;
54372;SDS011;69157;53.094;10.016;2024-03-17T13:21:08;0.55;;;0.40;;
54372;SDS011;69157;53.094;10.016;2024-03-17T13:23:34;0.40;;;0.40;;
54372;SDS011;69157;53.094;10.016;2024-03-17T13:26:02;1.45;;;0.45;;
54372;SDS011;69157;53.094;10.016;2024-03-17T13:28:28;2.60;;;0.40;;
54372;SDS011;69157;53.094;10.016;2024-03-17T13:30:56;0.40;;;0.38;;
54372;SDS011;69157;53.094;10.016;2024-03-17T13:33:22;3.53;;;0.70;;
54372;SDS011;69157;53.094;10.016;2024-03-17T13:35:48;0.47;;;0.47;;
54372;SDS011;69157;53.094;10.016;2024-03-17T13:38:14;1.27;;;0.50;;
54372;SDS011;69157;53.094;10.016;2024-03-17T13:40:40;0.40;;;0.40;;
54372;SDS011;69157;53.094;10.016;2024-03-17T13:43:07;0.55;;;0.30;;
54372;SDS011;69157;53.094;10.016;2024-03-17T13:45:38;0.38;;;0.38;;
54372;SDS011;69157;53.094;10.016;2024-03-17T13:48:05;4.28;;;0.82;;
54372;SDS011;69157;53.094;10.016;2024-03-17T13:50:32;1.88;;;0.50;;
54372;SDS011;69157;53.094;10.016;2024-03-17T13:52:58;1.02;;;0.30;;
54372;SDS011;69157;53.094;10.016;2024-03-17T13:55:28;1.95;;;0.45;;
54372;SDS011;69157;53.094;10.016;2024-03-17T13:57:54;2.17;;;0.55;;
54372;SDS011;69157;53.094;10.016;2024-03-17T14:00:25;2.65;;;0.40;;
54372;SDS011;69157;53.094;10.016;2024-03-17T14:02:51;1.73;;;0.55;;
54372;SDS011;69157;53.094;10.016;2024-03-17T14:05:24;1.30;;;0.40;;
54372;SDS011;69157;53.094;10.016;2024-03-17T14:07:54;1.77;;;0.40;;
54372;SDS011;69157;53.094;10.016;2024-03-17T14:10:22;0.32;;;0.32;;
54372;SDS011;69157;53.094;10.016;2024-03-17T14:12:48;1.88;;;0.50;;
54372;SDS011;69157;53.094;10.016;2024-03-17T14:15:14;0.35;;;0.30;;
54372;SDS011;69157;53.094;10.016;2024-03-17T14:17:42;1.75;;;0.40;;
54372;SDS011;69157;53.094;10.016;2024-03-17T14:20:10;1.40;;;0.50;;
54372;SDS011;69157;53.094;10.016;2024-03-17T14:22:38;0.80;;;0.50;;
54372;SDS011;69157;53.094;10.016;2024-03-17T14:25:05;1.35;;;0.50;;
54372;SDS011;69157;53.094;10.016;2024-03-17T14:27:31;0.45;;;0.40;;
54372;SDS011;69157;53.094;10.016;2024-03-17T14:29:57;1.73;;;0.85;;
54372;SDS011;69157;53.094;10.016;2024-03-17T14:32:23;2.83;;;0.50;;
54372;SDS011;69157;53.094;10.016;2024-03-17T14:34:49;0.57;;;0.40;;
54372;SDS011;69157;53.094;10.016;2024-03-17T14:37:15;1.75;;;0.43;;
54372;SDS011;69157;53.094;10.016;2024-03-17T14:39:41;0.50;;;0.40;;
54372;SDS011;69157;53.094;10.016;2024-03-17T14:42:08;1.38;;;0.50;;
54372;SDS011;69157;53.094;10.016;2024-03-17T14:44:35;0.70;;;0.50;;
54372;SDS011;69157;53.094;10.016;2024-03-17T14:47:02;1.38;;;0.50;;
54372;SDS011;69157;53.094;10.016;2024-03-17T14:49:29;3.20;;;0.45;;
54372;SDS011;69157;53.094;10.016;2024-03-17T14:51:55;1.92;;;0.40;;
54372;SDS011;69157;53.094;10.016;2024-03-17T14:54:21;2.55;;;0.40;;
54372;SDS011;69157;53.094;10.016;2024-03-17T14:56:48;2.17;;;0.40;;
54372;SDS011;69157;53.094;10.016;2024-03-17T14:59:14;1.75;;;0.70;;
54372;SDS011;69157;53.094;10.016;2024-03-17T15:01:45;0.30;;;0.30;;
54372;SDS011;69157;53.094;10.016;2024-03-17T15:04:12;1.20;;;0.50;;